This is the latest recevied weather packets stored in our database for station/object K4QXN. If no packets are shown the sender has not sent any weather packets the latest 10 day(s).
| Time | Temp. | Humidity | Pressure | Rain* | Wind** | Luminosity | Snow |
|---|---|---|---|---|---|---|---|
| 1777501805 | 26.11° C | 66% | 1005.7 hPa | 0 mm | - | - | - |
| 1777501503 | 26.11° C | 65% | 1005.7 hPa | 0 mm | - | - | - |
| 1777501201 | 26.11° C | 65% | 1005.7 hPa | 0 mm | - | - | - |
| 1777500899 | 26.11° C | 65% | 1005.7 hPa | 0 mm | - | - | - |
| 1777500598 | 26.67° C | 62% | 1005.7 hPa | 0 mm | - | - | - |
| 1777500296 | 26.67° C | 62% | 1005.7 hPa | 0 mm | - | - | - |
| 1777499994 | 27.78° C | 59% | 1005.7 hPa | 0 mm | - | - | - |
| 1777499692 | 27.78° C | 58% | 1005.7 hPa | 0 mm | - | - | - |
| 1777499390 | 27.78° C | 60% | 1005.7 hPa | 0 mm | - | - | - |
| 1777499088 | 26.67° C | 62% | 1006 hPa | 0 mm | - | - | - |
| 1777498484 | 28.33° C | 59% | 1006.4 hPa | 0 mm | - | - | - |
| 1777498182 | 27.78° C | 59% | 1006 hPa | 0 mm | - | - | - |
| 1777497881 | 28.33° C | 59% | 1006 hPa | 0 mm | - | - | - |
| 1777497579 | 26.67° C | 62% | 1006.4 hPa | 0 mm | - | - | - |
| 1777497278 | 26.11° C | 63% | 1006.4 hPa | 0 mm | - | - | - |
| 1777496674 | 26.67° C | 62% | 1006.4 hPa | 0 mm | - | - | - |
| 1777496372 | 26.67° C | 62% | 1006.7 hPa | 0 mm | - | - | - |
| 1777496070 | 27.22° C | 60% | 1006.7 hPa | 0 mm | - | - | - |
| 1777495768 | 28.89° C | 56% | 1006.7 hPa | 0 mm | - | - | - |
| 1777495466 | 28.33° C | 57% | 1006.7 hPa | 0 mm | - | - | - |
| 1777495165 | 28.33° C | 57% | 1006.4 hPa | 0 mm | - | - | - |
| 1777494863 | 28.33° C | 58% | 1006.4 hPa | 0 mm | - | - | - |
| 1777494561 | 27.22° C | 60% | 1006.4 hPa | 0 mm | - | - | - |
| 1777493949 | 28.33° C | 57% | 1006.7 hPa | 0 mm | - | - | - |
| 1777493647 | 28.33° C | 57% | 1006.7 hPa | 0 mm | - | - | - |
* Rain latest hour (hover to see other rain measurements)
** Current wind speed in m/s (hover to see current wind gust speed)